createdAt,value
2022-09-14T00:01:40.145Z,97908.56
2022-09-14T00:04:16.286Z,97909.41
2022-09-14T00:06:44.237Z,97895.19
2022-09-14T00:09:21.688Z,97888.03
2022-09-14T00:11:50.723Z,97886.91
2022-09-14T00:14:19.712Z,97887.88
2022-09-14T00:16:46.751Z,97882.53
2022-09-14T00:19:24.932Z,97877.31
2022-09-14T00:21:57.635Z,97869.59
2022-09-14T00:24:27.114Z,97856.91
2022-09-14T00:26:54.273Z,97862.13
2022-09-14T00:29:21.259Z,97861.41
2022-09-14T00:31:48.284Z,97858.06
2022-09-14T00:34:17.633Z,97849.47
2022-09-14T00:36:49.585Z,97847.78
2022-09-14T00:39:19.518Z,97855.50
2022-09-14T00:41:49.098Z,97864.38
2022-09-14T00:44:15.807Z,97846.94
2022-09-14T00:46:46.899Z,97836.34
2022-09-14T00:49:40.099Z,97848.63
2022-09-14T00:52:20.418Z,97848.63
2022-09-14T00:55:11.046Z,97840.00
2022-09-14T00:57:44.988Z,97835.53
2022-09-14T01:00:19.319Z,97846.94
2022-09-14T01:02:46.558Z,97851.31
2022-09-14T01:05:14.791Z,97857.63
2022-09-14T01:08:34.309Z,97853.66
2022-09-14T01:11:22.396Z,97859.00
2022-09-14T01:14:01.379Z,97861.94
2022-09-14T01:17:02.438Z,97848.84
2022-09-14T01:20:06.243Z,97865.56
2022-09-14T01:22:52.282Z,97870.78
2022-09-14T01:25:58.303Z,97853.78
2022-09-14T01:28:38.238Z,97847.44
2022-09-14T01:31:15.306Z,97837.03
2022-09-14T01:33:57.610Z,97838.88
2022-09-14T01:36:30.941Z,97839.00
2022-09-14T01:39:01.360Z,97839.88
2022-09-14T01:41:31.798Z,97845.91
2022-09-14T01:44:11.958Z,97841.28
2022-09-14T01:47:09.697Z,97845.78
2022-09-14T01:49:46.782Z,97846.47
2022-09-14T01:52:25.332Z,97842.09
2022-09-14T01:55:02.639Z,97829.44
2022-09-14T01:57:44.043Z,97823.28
2022-09-14T02:00:16.838Z,97829.44
2022-09-14T02:02:55.144Z,97832.84
2022-09-14T02:05:53.814Z,97820.03
2022-09-14T02:08:21.213Z,97821.75
2022-09-14T02:10:48.227Z,97818.34
2022-09-14T02:13:15.031Z,97815.84
2022-09-14T02:15:43.091Z,97814.28
2022-09-14T02:18:09.963Z,97799.53
2022-09-14T02:20:48.787Z,97788.53
2022-09-14T02:23:17.841Z,97775.59
2022-09-14T02:25:46.865Z,97781.78
2022-09-14T02:28:14.354Z,97782.78
2022-09-14T02:31:12.417Z,97791.63
2022-09-14T02:33:57.253Z,97797.94
2022-09-14T02:36:51.936Z,97796.66
2022-09-14T02:39:48.119Z,97805.66
2022-09-14T02:43:19.772Z,97803.28
2022-09-14T02:45:57.425Z,97804.38
2022-09-14T02:48:57.746Z,97793.97
2022-09-14T02:51:36.328Z,97803.25
2022-09-14T02:54:22.065Z,97807.59
2022-09-14T02:56:49.441Z,97811.13
2022-09-14T02:59:18.640Z,97813.78
2022-09-14T03:01:45.647Z,97814.50
2022-09-14T03:04:12.513Z,97809.41
2022-09-14T03:06:39.469Z,97808.31
2022-09-14T03:09:06.314Z,97810.81
2022-09-14T03:11:33.227Z,97811.13
2022-09-14T03:14:00.158Z,97810.25
2022-09-14T03:16:27.015Z,97816.31
2022-09-14T03:18:53.976Z,97821.66
2022-09-14T03:21:20.979Z,97814.75
2022-09-14T03:23:51.444Z,97807.88
2022-09-14T03:26:23.006Z,97810.81
2022-09-14T03:28:59.161Z,97809.69
2022-09-14T03:31:26.845Z,97806.31
2022-09-14T03:33:56.789Z,97816.03
2022-09-14T03:36:25.958Z,97810.69
2022-09-14T03:38:57.432Z,97807.16
2022-09-14T03:41:25.377Z,97799.84
2022-09-14T03:43:52.376Z,97784.81
2022-09-14T03:46:24.853Z,97775.13
2022-09-14T03:48:53.844Z,97783.84
2022-09-14T03:51:21.034Z,97778.50
2022-09-14T03:53:48.045Z,97782.69
2022-09-14T03:56:20.750Z,97782.44
2022-09-14T03:58:49.610Z,97782.44
2022-09-14T04:01:21.443Z,97784.00
2022-09-14T04:03:50.075Z,97779.50
2022-09-14T04:06:18.777Z,97772.19
2022-09-14T04:08:47.395Z,97780.19
2022-09-14T04:11:19.152Z,97778.53
2022-09-14T04:13:47.624Z,97778.22
2022-09-14T04:16:16.476Z,97774.72
2022-09-14T04:18:43.847Z,97768.41
2022-09-14T04:21:16.685Z,97770.22
2022-09-14T04:24:13.433Z,97774.44
2022-09-14T04:26:32.387Z,97776.84
2022-09-14T04:28:59.427Z,97772.47
2022-09-14T04:31:26.583Z,97770.09
2022-09-14T04:33:56.324Z,97772.88
2022-09-14T04:36:28.621Z,97763.34
2022-09-14T04:38:58.787Z,97754.78
2022-09-14T04:41:27.606Z,97754.63
2022-09-14T04:43:56.444Z,97761.66
2022-09-14T04:46:35.061Z,97757.19
2022-09-14T04:49:02.437Z,97762.34
2022-09-14T04:51:33.210Z,97755.19
2022-09-14T04:54:03.744Z,97752.53
2022-09-14T04:56:35.205Z,97744.78
2022-09-14T04:59:04.392Z,97738.75
2022-09-14T05:01:41.768Z,97732.56
2022-09-14T05:04:10.508Z,97729.19
2022-09-14T05:06:40.756Z,97734.13
2022-09-14T05:09:14.846Z,97730.47
2022-09-14T05:11:43.283Z,97731.31
2022-09-14T05:14:13.410Z,97735.66
2022-09-14T05:16:42.099Z,97740.03
2022-09-14T05:19:14.200Z,97739.88
2022-09-14T05:21:41.330Z,97732.84
2022-09-14T05:24:15.011Z,97733.72
2022-09-14T05:26:43.792Z,97727.09
2022-09-14T05:29:15.000Z,97724.84
2022-09-14T05:31:42.371Z,97726.28
2022-09-14T05:34:11.146Z,97732.31
2022-09-14T05:36:40.235Z,97735.94
2022-09-14T05:39:08.382Z,97742.00
2022-09-14T05:41:36.135Z,97735.53
2022-09-14T05:44:03.576Z,97738.06
2022-09-14T05:46:30.404Z,97735.53
2022-09-14T05:48:57.574Z,97729.22
2022-09-14T05:51:27.343Z,97737.09
2022-09-14T05:53:57.552Z,97737.09
2022-09-14T05:56:28.657Z,97741.44
2022-09-14T05:58:56.071Z,97752.38
2022-09-14T06:01:26.832Z,97751.69
2022-09-14T06:03:56.877Z,97755.22
2022-09-14T06:06:24.699Z,97756.19
2022-09-14T06:08:54.259Z,97763.50
2022-09-14T06:11:40.446Z,97766.31
2022-09-14T06:14:07.539Z,97770.94
2022-09-14T06:16:35.193Z,97768.69
2022-09-14T06:19:02.410Z,97763.75
2022-09-14T06:21:34.901Z,97766.13
2022-09-14T06:24:02.549Z,97767.81
2022-09-14T06:26:29.984Z,97769.63
2022-09-14T06:28:57.666Z,97767.13
2022-09-14T06:31:49.183Z,97766.25
2022-09-14T06:34:16.691Z,97757.81
2022-09-14T06:36:44.849Z,97758.81
2022-09-14T06:39:12.181Z,97752.75
2022-09-14T06:41:39.256Z,97751.06
2022-09-14T06:44:06.627Z,97746.84
2022-09-14T06:46:35.718Z,97745.31
2022-09-14T06:49:14.408Z,97747.09
2022-09-14T06:51:46.569Z,97741.63
2022-09-14T06:54:18.905Z,97735.47
2022-09-14T06:56:55.510Z,97735.47
2022-09-14T06:59:23.061Z,97735.72
2022-09-14T07:01:52.059Z,97728.88
2022-09-14T07:04:56.917Z,97727.16
2022-09-14T07:07:31.997Z,97723.09
2022-09-14T07:09:59.365Z,97716.06
2022-09-14T07:12:28.265Z,97706.22
2022-09-14T07:14:55.659Z,97713.97
2022-09-14T07:17:22.839Z,97709.47
2022-09-14T07:19:50.180Z,97707.66
2022-09-14T07:22:20.380Z,97713.56
2022-09-14T07:24:47.998Z,97706.38
2022-09-14T07:27:15.672Z,97706.13
2022-09-14T07:29:55.775Z,97699.53
2022-09-14T07:32:24.114Z,97706.28
2022-09-14T07:34:53.993Z,97710.78
2022-09-14T07:37:21.159Z,97708.81
2022-09-14T07:39:50.815Z,97714.44
2022-09-14T07:42:27.195Z,97720.34
2022-09-14T07:44:56.757Z,97714.00
2022-09-14T07:47:25.878Z,97714.75
2022-09-14T07:49:54.199Z,97719.22
2022-09-14T07:52:38.608Z,97716.84
2022-09-14T07:55:08.707Z,97707.00
2022-09-14T07:57:55.041Z,97714.31
2022-09-14T08:00:37.150Z,97701.81
2022-09-14T08:03:05.714Z,97707.97
2022-09-14T08:05:35.883Z,97719.50
2022-09-14T08:08:13.290Z,97712.78
2022-09-14T08:10:50.610Z,97708.81
2022-09-14T08:13:18.840Z,97705.19
2022-09-14T08:15:46.055Z,97714.03
2022-09-14T08:18:13.974Z,97715.72
2022-09-14T08:20:41.121Z,97718.13
2022-09-14T08:23:09.530Z,97713.34
2022-09-14T08:25:36.515Z,97714.75
2022-09-14T08:28:06.146Z,97711.81
2022-09-14T08:30:33.630Z,97713.50
2022-09-14T08:33:02.021Z,97712.50
2022-09-14T08:35:53.898Z,97701.69
2022-09-14T08:38:18.528Z,97694.53
2022-09-14T08:41:02.565Z,97693.41
2022-09-14T08:43:30.213Z,97696.63
2022-09-14T08:46:06.005Z,97698.19
2022-09-14T08:48:42.632Z,97697.19
2022-09-14T08:51:10.034Z,97691.84
2022-09-14T08:53:41.953Z,97690.16
2022-09-14T08:56:21.533Z,97690.88
2022-09-14T08:59:10.046Z,97682.84
2022-09-14T09:02:24.831Z,97683.56
2022-09-14T09:05:21.730Z,97691.84
2022-09-14T09:08:19.722Z,97692.41
2022-09-14T09:10:49.055Z,97692.00
2022-09-14T09:13:23.706Z,97684.69
2022-09-14T09:15:57.252Z,97684.00
2022-09-14T09:19:03.130Z,97692.00
2022-09-14T09:21:43.105Z,97690.72
2022-09-14T09:24:51.424Z,97684.81
2022-09-14T09:27:18.446Z,97685.94
2022-09-14T09:29:45.772Z,97688.59
2022-09-14T09:32:21.049Z,97684.81
2022-09-14T09:34:48.543Z,97679.47
2022-09-14T09:37:20.505Z,97685.38
2022-09-14T09:39:48.052Z,97685.66
2022-09-14T09:42:27.006Z,97686.78
2022-09-14T09:45:06.014Z,97684.66
2022-09-14T09:47:40.253Z,97682.69
2022-09-14T09:50:13.612Z,97689.69
2022-09-14T09:52:56.797Z,97677.06
2022-09-14T09:55:33.046Z,97677.06
2022-09-14T09:58:38.976Z,97675.78
2022-09-14T10:01:23.209Z,97672.69
2022-09-14T10:04:25.012Z,97660.16
2022-09-14T10:06:54.481Z,97661.03
2022-09-14T10:09:29.573Z,97667.06
2022-09-14T10:12:05.041Z,97660.56
2022-09-14T10:14:36.483Z,97665.78
2022-09-14T10:17:23.630Z,97663.09
2022-09-14T10:19:55.091Z,97660.97
2022-09-14T10:22:31.754Z,97668.31
2022-09-14T10:25:21.032Z,97666.19
2022-09-14T10:27:57.228Z,97666.75
2022-09-14T10:30:34.845Z,97673.34
2022-09-14T10:33:13.266Z,97671.34
2022-09-14T10:36:07.768Z,97674.88
2022-09-14T10:39:07.739Z,97666.84
2022-09-14T10:42:00.789Z,97666.69
2022-09-14T10:44:35.481Z,97672.91
2022-09-14T10:47:30.391Z,97685.97
2022-09-14T10:50:13.512Z,97679.78
2022-09-14T10:53:13.397Z,97680.06
2022-09-14T10:55:53.058Z,97672.91
2022-09-14T10:59:11.646Z,97670.78
2022-09-14T11:02:27.379Z,97677.13
2022-09-14T11:05:19.681Z,97673.59
2022-09-14T11:08:04.950Z,97661.06
2022-09-14T11:10:59.256Z,97654.19
2022-09-14T11:14:09.730Z,97641.66
2022-09-14T11:17:00.917Z,97629.97
2022-09-14T11:20:03.213Z,97633.78
2022-09-14T11:23:04.489Z,97635.50
2022-09-14T11:25:55.065Z,97637.00
2022-09-14T11:28:43.574Z,97631.38
2022-09-14T11:31:15.186Z,97621.81
2022-09-14T11:34:04.050Z,97620.81
2022-09-14T11:36:47.729Z,97621.38
2022-09-14T11:39:55.094Z,97624.59
2022-09-14T11:42:33.383Z,97614.91
2022-09-14T11:45:16.363Z,97618.41
2022-09-14T11:47:57.799Z,97618.41
2022-09-14T11:50:31.588Z,97623.47
2022-09-14T11:53:14.156Z,97620.25
2022-09-14T11:55:49.342Z,97607.72
2022-09-14T11:58:27.595Z,97607.84
2022-09-14T12:01:35.647Z,97622.59
2022-09-14T12:04:07.163Z,97613.44
2022-09-14T12:06:37.291Z,97613.44
2022-09-14T12:09:21.165Z,97610.63
2022-09-14T12:11:51.202Z,97612.88
2022-09-14T12:14:24.187Z,97609.88
2022-09-14T12:20:37.664Z,97591.31
2022-09-14T12:23:22.702Z,97581.75
2022-09-14T12:26:04.863Z,97586.66
2022-09-14T12:28:37.985Z,97590.84
2022-09-14T12:31:08.885Z,97587.88
2022-09-14T12:33:36.690Z,97577.72
2022-09-14T12:36:22.660Z,97575.59
2022-09-14T12:38:49.635Z,97583.06
2022-09-14T12:41:19.750Z,97581.06
2022-09-14T12:43:52.635Z,97592.44
2022-09-14T12:46:20.001Z,97584.81
2022-09-14T12:48:51.043Z,97576.78
2022-09-14T12:51:31.314Z,97577.94
2022-09-14T12:54:01.564Z,97575.72
2022-09-14T12:56:38.506Z,97567.69
2022-09-14T12:59:42.846Z,97572.06
2022-09-14T13:02:40.457Z,97570.50
2022-09-14T13:05:20.793Z,97568.84
2022-09-14T13:07:48.341Z,97561.81
2022-09-14T13:10:31.530Z,97569.00
2022-09-14T13:13:02.509Z,97560.09
2022-09-14T13:15:51.147Z,97564.47
2022-09-14T13:18:18.234Z,97565.16
2022-09-14T13:20:58.188Z,97564.19
2022-09-14T13:23:38.487Z,97565.00
2022-09-14T13:26:18.892Z,97568.22
2022-09-14T13:28:49.711Z,97564.72
2022-09-14T13:31:45.150Z,97566.25
2022-09-14T13:34:25.594Z,97554.69
2022-09-14T13:36:55.759Z,97547.81
2022-09-14T13:39:35.054Z,97537.97
2022-09-14T13:42:04.083Z,97541.78
2022-09-14T13:44:46.930Z,97549.97
2022-09-14T13:47:20.234Z,97542.25
2022-09-14T13:49:51.854Z,97545.75
2022-09-14T13:52:22.102Z,97549.41
2022-09-14T13:55:24.302Z,97546.59
2022-09-14T13:58:09.617Z,97536.59
2022-09-14T14:00:59.315Z,97536.25
2022-09-14T14:03:39.141Z,97538.50
2022-09-14T14:06:31.934Z,97537.06
2022-09-14T14:09:03.532Z,97542.06
2022-09-14T14:11:55.206Z,97541.09
2022-09-14T14:14:31.120Z,97534.06
2022-09-14T14:17:13.504Z,97534.91
2022-09-14T14:19:41.223Z,97527.72
2022-09-14T14:22:14.123Z,97523.03
2022-09-14T14:25:11.918Z,97520.06
2022-09-14T14:27:43.058Z,97514.41
2022-09-14T14:30:15.208Z,97514.25
2022-09-14T14:32:42.567Z,97525.66
2022-09-14T14:35:22.248Z,97529.00
2022-09-14T14:37:51.340Z,97525.50
2022-09-14T14:40:20.304Z,97532.69
2022-09-14T14:42:49.095Z,97533.53
2022-09-14T14:45:27.445Z,97535.38
2022-09-14T14:47:56.153Z,97526.47
2022-09-14T14:50:33.771Z,97525.66
2022-09-14T14:53:02.260Z,97515.63
2022-09-14T14:55:32.967Z,97519.84
2022-09-14T14:58:06.648Z,97526.84
2022-09-14T15:00:36.664Z,97521.66
2022-09-14T15:03:03.995Z,97523.50
2022-09-14T15:05:31.324Z,97523.50
2022-09-14T15:07:58.851Z,97520.66
2022-09-14T15:10:28.983Z,97515.16
2022-09-14T15:12:55.839Z,97517.84
2022-09-14T15:15:26.578Z,97514.16
2022-09-14T15:17:54.058Z,97507.81
2022-09-14T15:20:22.299Z,97510.34
2022-09-14T15:22:49.891Z,97506.81
2022-09-14T15:25:19.567Z,97504.16
2022-09-14T15:27:47.235Z,97510.50
2022-09-14T15:30:15.657Z,97511.47
2022-09-14T15:32:43.282Z,97497.25
2022-09-14T15:35:15.906Z,97499.78
2022-09-14T15:37:43.675Z,97492.56
2022-09-14T15:40:11.234Z,97499.63
2022-09-14T15:42:42.023Z,97493.44
2022-09-14T15:45:11.043Z,97486.41
2022-09-14T15:47:37.932Z,97486.41
2022-09-14T15:50:07.121Z,97485.94
2022-09-14T15:52:37.589Z,97479.91
2022-09-14T15:55:08.869Z,97481.41
2022-09-14T15:57:41.418Z,97479.56
2022-09-14T16:00:13.581Z,97464.53
2022-09-14T16:02:41.854Z,97466.38
2022-09-14T16:05:09.766Z,97456.50
2022-09-14T16:07:37.458Z,97451.13
2022-09-14T16:10:05.076Z,97455.66
2022-09-14T16:12:35.042Z,97445.78
2022-09-14T16:15:02.232Z,97434.25
2022-09-14T16:17:29.414Z,97427.19
2022-09-14T16:19:56.483Z,97426.38
2022-09-14T16:22:36.607Z,97412.13
2022-09-14T16:25:07.752Z,97403.25
2022-09-14T16:27:37.221Z,97401.72
2022-09-14T16:30:07.792Z,97401.72
2022-09-14T16:32:36.245Z,97394.03
2022-09-14T16:35:08.121Z,97392.50
2022-09-14T16:37:36.057Z,97395.19
2022-09-14T16:40:05.162Z,97403.06
2022-09-14T16:42:32.613Z,97412.06
2022-09-14T16:45:02.806Z,97416.44
2022-09-14T16:47:30.068Z,97412.94
2022-09-14T16:49:57.668Z,97403.88
2022-09-14T16:52:25.018Z,97396.00
2022-09-14T16:54:55.891Z,97392.34
2022-09-14T16:57:26.906Z,97386.00
2022-09-14T16:59:54.144Z,97393.19
2022-09-14T17:02:21.167Z,97402.06
2022-09-14T17:04:48.129Z,97397.69
2022-09-14T17:07:15.125Z,97395.19
2022-09-14T17:09:42.085Z,97378.59
2022-09-14T17:12:08.841Z,97375.94
2022-09-14T17:14:36.092Z,97394.34
2022-09-14T17:17:04.107Z,97385.66
2022-09-14T17:19:33.347Z,97390.28
2022-09-14T17:22:00.878Z,97391.31
2022-09-14T17:24:31.794Z,97388.47
2022-09-14T17:26:58.602Z,97385.97
2022-09-14T17:29:28.132Z,97373.56
2022-09-14T17:31:55.590Z,97370.72
2022-09-14T17:34:22.549Z,97366.22
2022-09-14T17:36:49.664Z,97368.72
2022-09-14T17:39:19.129Z,97375.78
2022-09-14T17:41:47.710Z,97377.47
2022-09-14T17:44:15.033Z,97371.25
2022-09-14T17:46:52.965Z,97372.09
2022-09-14T17:49:23.190Z,97377.63
2022-09-14T17:51:51.857Z,97390.13
2022-09-14T17:54:21.279Z,97391.81
2022-09-14T17:56:51.086Z,97390.84
2022-09-14T17:59:20.885Z,97397.03
2022-09-14T18:01:49.679Z,97407.72
2022-09-14T18:04:26.304Z,97400.69
2022-09-14T18:06:57.068Z,97415.75
2022-09-14T18:09:26.207Z,97411.53
2022-09-14T18:11:58.181Z,97405.38
2022-09-14T18:14:26.199Z,97396.34
2022-09-14T18:17:00.114Z,97391.00
2022-09-14T18:19:29.177Z,97398.88
2022-09-14T18:22:09.087Z,97398.31
2022-09-14T18:24:36.448Z,97402.00
2022-09-14T18:27:15.109Z,97395.66
2022-09-14T18:29:44.148Z,97391.00
2022-09-14T18:32:13.925Z,97394.66
2022-09-14T18:34:40.810Z,97386.94
2022-09-14T18:37:09.314Z,97392.13
2022-09-14T18:39:36.645Z,97379.94
2022-09-14T18:42:05.131Z,97384.25
2022-09-14T18:44:32.192Z,97382.59
2022-09-14T18:47:09.838Z,97379.94
2022-09-14T18:49:37.029Z,97378.09
2022-09-14T18:52:13.496Z,97370.22
2022-09-14T18:54:47.249Z,97376.53
2022-09-14T18:57:21.145Z,97372.06
2022-09-14T18:59:48.393Z,97372.06
2022-09-14T19:05:26.918Z,97371.03
2022-09-14T19:08:03.153Z,97357.00
2022-09-14T19:10:31.588Z,97356.84
2022-09-14T19:12:59.769Z,97354.97
2022-09-14T19:15:32.472Z,97354.00
2022-09-14T19:18:17.473Z,97350.31
2022-09-14T19:21:06.417Z,97352.16
2022-09-14T19:23:38.259Z,97355.50
2022-09-14T19:26:44.676Z,97365.91
2022-09-14T19:29:20.388Z,97372.25
2022-09-14T19:31:53.315Z,97373.94
2022-09-14T19:34:26.541Z,97363.69
2022-09-14T19:36:55.067Z,97365.22
2022-09-14T19:39:25.743Z,97356.38
2022-09-14T19:41:54.405Z,97361.56
2022-09-14T19:44:25.394Z,97361.41
2022-09-14T19:47:04.842Z,97356.88
2022-09-14T19:49:34.148Z,97352.66
2022-09-14T19:52:02.238Z,97348.84
2022-09-14T19:54:30.176Z,97349.00
2022-09-14T19:56:57.343Z,97343.81
2022-09-14T19:59:25.495Z,97348.19
2022-09-14T20:01:55.323Z,97339.13
2022-09-14T20:04:23.760Z,97349.69
2022-09-14T20:06:51.813Z,97348.84
2022-09-14T20:09:23.630Z,97353.19
2022-09-14T20:11:53.366Z,97356.06
2022-09-14T20:14:25.291Z,97355.03
2022-09-14T20:16:58.159Z,97356.88
2022-09-14T20:19:28.408Z,97360.84
2022-09-14T20:21:58.321Z,97366.75
2022-09-14T20:24:29.199Z,97357.88
2022-09-14T20:27:00.485Z,97351.69
2022-09-14T20:29:31.063Z,97362.22
2022-09-14T20:31:59.295Z,97355.03
2022-09-14T20:34:26.628Z,97354.06
2022-09-14T20:36:54.581Z,97347.84
2022-09-14T20:39:24.592Z,97334.31
2022-09-14T20:41:53.698Z,97330.13
2022-09-14T20:44:23.023Z,97321.06
2022-09-14T20:47:14.477Z,97332.13
2022-09-14T20:49:43.097Z,97323.22
2022-09-14T20:52:10.253Z,97312.53
2022-09-14T20:54:37.337Z,97318.91
2022-09-14T20:57:04.805Z,97311.03
2022-09-14T20:59:32.576Z,97314.19
2022-09-14T21:02:06.101Z,97312.47
2022-09-14T21:04:48.894Z,97303.78
2022-09-14T21:07:17.755Z,97295.75
2022-09-14T21:09:44.886Z,97304.94
2022-09-14T21:12:14.090Z,97307.63
2022-09-14T21:14:42.790Z,97299.59
2022-09-14T21:17:11.974Z,97297.75
2022-09-14T21:19:39.484Z,97294.25
2022-09-14T21:22:06.819Z,97292.56
2022-09-14T21:24:35.501Z,97288.91
2022-09-14T21:27:02.626Z,97285.22
2022-09-14T21:29:29.985Z,97302.59
2022-09-14T21:31:57.881Z,97304.28
2022-09-14T21:34:24.775Z,97294.56
2022-09-14T21:36:52.860Z,97295.41
2022-09-14T21:39:25.330Z,97304.09
2022-09-14T21:41:59.421Z,97298.94
2022-09-14T21:44:37.784Z,97292.19
2022-09-14T21:47:05.990Z,97296.88
2022-09-14T21:49:34.825Z,97319.94
2022-09-14T21:52:02.498Z,97310.25
2022-09-14T21:54:30.040Z,97315.09
2022-09-14T21:56:59.179Z,97302.34
2022-09-14T21:59:26.836Z,97302.50
2022-09-14T22:01:54.502Z,97296.81
2022-09-14T22:04:25.381Z,97289.72
2022-09-14T22:06:54.039Z,97293.78
2022-09-14T22:09:25.274Z,97294.47
2022-09-14T22:11:53.943Z,97291.78
2022-09-14T22:14:27.610Z,97306.84
2022-09-14T22:16:56.852Z,97301.50
2022-09-14T22:19:30.282Z,97294.47
2022-09-14T22:21:58.256Z,97297.56
2022-09-14T22:24:38.306Z,97281.53
2022-09-14T22:27:11.745Z,97285.06
2022-09-14T22:29:41.134Z,97283.91
2022-09-14T22:32:12.194Z,97273.22
2022-09-14T22:34:42.705Z,97264.66
2022-09-14T22:37:11.766Z,97268.00
2022-09-14T22:39:39.848Z,97261.69
2022-09-14T22:42:08.021Z,97261.38
2022-09-14T22:44:35.402Z,97269.56
2022-09-14T22:47:03.613Z,97267.47
2022-09-14T22:49:31.023Z,97272.47
2022-09-14T22:51:59.020Z,97278.50
2022-09-14T22:54:26.122Z,97277.34
2022-09-14T22:56:53.267Z,97274.00
2022-09-14T22:59:20.783Z,97273.13
2022-09-14T23:01:48.142Z,97269.56
2022-09-14T23:04:15.289Z,97268.38
2022-09-14T23:06:48.082Z,97267.59
2022-09-14T23:09:18.796Z,97266.59
2022-09-14T23:11:45.906Z,97276.16
2022-09-14T23:14:15.145Z,97281.81
2022-09-14T23:16:45.040Z,97276.31
2022-09-14T23:19:18.416Z,97282.78
2022-09-14T23:21:45.919Z,97289.84
2022-09-14T23:24:13.427Z,97285.31
2022-09-14T23:26:40.407Z,97291.50
2022-09-14T23:29:14.522Z,97289.69
2022-09-14T23:31:41.635Z,97285.63
2022-09-14T23:34:08.758Z,97289.84
2022-09-14T23:36:35.612Z,97279.44
2022-09-14T23:39:02.776Z,97283.97
2022-09-14T23:41:30.439Z,97283.09
2022-09-14T23:43:57.523Z,97280.91
2022-09-14T23:46:25.590Z,97290.91
2022-09-14T23:48:53.017Z,97287.63
2022-09-14T23:51:19.974Z,97293.28
2022-09-14T23:53:47.272Z,97291.41
2022-09-14T23:56:14.749Z,97294.13
2022-09-14T23:58:42.876Z,97300.84
